sensor_id;sensor_type;location;lat;lon;timestamp;pressure;altitude;pressure_sealevel;temperature;humidity
17711;BME280;8975;57.718;12.134;2022-07-15T00:00:23;115940.22;;;-142.68;100.00
17711;BME280;8975;57.718;12.134;2022-07-15T00:02:48;115940.22;;;-142.68;100.00
17711;BME280;8975;57.718;12.134;2022-07-15T00:05:14;115940.22;;;-142.68;100.00
17711;BME280;8975;57.718;12.134;2022-07-15T00:07:39;115940.22;;;-142.68;100.00
17711;BME280;8975;57.718;12.134;2022-07-15T00:10:05;115940.22;;;-142.68;100.00
17711;BME280;8975;57.718;12.134;2022-07-15T00:12:48;115940.22;;;-142.68;100.00
17711;BME280;8975;57.718;12.134;2022-07-15T00:15:13;115940.22;;;-142.68;100.00
17711;BME280;8975;57.718;12.134;2022-07-15T00:17:42;115940.22;;;-142.68;100.00
17711;BME280;8975;57.718;12.134;2022-07-15T00:20:09;115940.22;;;-142.68;100.00
17711;BME280;8975;57.718;12.134;2022-07-15T00:22:35;115940.22;;;-142.68;100.00
17711;BME280;8975;57.718;12.134;2022-07-15T00:25:00;115940.22;;;-142.68;100.00
17711;BME280;8975;57.718;12.134;2022-07-15T00:27:26;115940.22;;;-142.68;100.00
17711;BME280;8975;57.718;12.134;2022-07-15T00:29:51;115940.22;;;-142.68;100.00
17711;BME280;8975;57.718;12.134;2022-07-15T00:32:17;115940.22;;;-142.68;100.00
17711;BME280;8975;57.718;12.134;2022-07-15T00:34:42;115940.22;;;-142.68;100.00
17711;BME280;8975;57.718;12.134;2022-07-15T00:37:08;115940.22;;;-142.68;100.00
17711;BME280;8975;57.718;12.134;2022-07-15T00:39:33;115940.22;;;-142.68;100.00
17711;BME280;8975;57.718;12.134;2022-07-15T00:41:59;115940.22;;;-142.68;100.00
17711;BME280;8975;57.718;12.134;2022-07-15T00:44:24;115940.22;;;-142.68;100.00
17711;BME280;8975;57.718;12.134;2022-07-15T00:46:52;115940.22;;;-142.68;100.00
17711;BME280;8975;57.718;12.134;2022-07-15T00:49:17;115940.22;;;-142.68;100.00
17711;BME280;8975;57.718;12.134;2022-07-15T00:51:46;115940.22;;;-142.68;100.00
17711;BME280;8975;57.718;12.134;2022-07-15T00:54:14;115940.22;;;-142.68;100.00
17711;BME280;8975;57.718;12.134;2022-07-15T00:56:45;115940.22;;;-142.68;100.00
17711;BME280;8975;57.718;12.134;2022-07-15T00:59:12;115940.22;;;-142.68;100.00
17711;BME280;8975;57.718;12.134;2022-07-15T01:01:37;115940.22;;;-142.68;100.00
17711;BME280;8975;57.718;12.134;2022-07-15T01:04:04;115940.22;;;-142.68;100.00
17711;BME280;8975;57.718;12.134;2022-07-15T01:06:30;115940.22;;;-142.68;100.00
17711;BME280;8975;57.718;12.134;2022-07-15T01:08:56;115940.22;;;-142.68;100.00
17711;BME280;8975;57.718;12.134;2022-07-15T01:11:21;115940.22;;;-142.68;100.00
17711;BME280;8975;57.718;12.134;2022-07-15T01:13:47;115940.22;;;-142.68;100.00
17711;BME280;8975;57.718;12.134;2022-07-15T01:16:12;115940.22;;;-142.68;100.00
17711;BME280;8975;57.718;12.134;2022-07-15T01:18:37;115940.22;;;-142.68;100.00
17711;BME280;8975;57.718;12.134;2022-07-15T01:21:03;115940.22;;;-142.68;100.00
17711;BME280;8975;57.718;12.134;2022-07-15T01:23:29;115940.22;;;-142.68;100.00
17711;BME280;8975;57.718;12.134;2022-07-15T01:25:55;115940.22;;;-142.68;100.00
17711;BME280;8975;57.718;12.134;2022-07-15T01:28:21;115940.22;;;-142.68;100.00
17711;BME280;8975;57.718;12.134;2022-07-15T01:30:46;115940.22;;;-142.68;100.00
17711;BME280;8975;57.718;12.134;2022-07-15T01:33:11;115940.22;;;-142.68;100.00
17711;BME280;8975;57.718;12.134;2022-07-15T01:35:37;115940.22;;;-142.68;100.00
17711;BME280;8975;57.718;12.134;2022-07-15T01:38:02;115940.22;;;-142.68;100.00
17711;BME280;8975;57.718;12.134;2022-07-15T01:40:28;115940.22;;;-142.68;100.00
17711;BME280;8975;57.718;12.134;2022-07-15T01:42:53;115940.22;;;-142.68;100.00
17711;BME280;8975;57.718;12.134;2022-07-15T01:45:19;115940.22;;;-142.68;100.00
17711;BME280;8975;57.718;12.134;2022-07-15T01:47:49;115940.22;;;-142.68;100.00
17711;BME280;8975;57.718;12.134;2022-07-15T01:50:16;115940.22;;;-142.68;100.00
17711;BME280;8975;57.718;12.134;2022-07-15T01:52:42;115940.22;;;-142.68;100.00
17711;BME280;8975;57.718;12.134;2022-07-15T01:55:08;115940.22;;;-142.68;100.00
17711;BME280;8975;57.718;12.134;2022-07-15T01:57:34;115940.22;;;-142.68;100.00
17711;BME280;8975;57.718;12.134;2022-07-15T01:59:59;115940.22;;;-142.68;100.00
17711;BME280;8975;57.718;12.134;2022-07-15T02:02:25;115940.22;;;-142.68;100.00
17711;BME280;8975;57.718;12.134;2022-07-15T02:04:51;115940.22;;;-142.68;100.00
17711;BME280;8975;57.718;12.134;2022-07-15T02:07:16;115940.22;;;-142.68;100.00
17711;BME280;8975;57.718;12.134;2022-07-15T02:09:41;115940.22;;;-142.68;100.00
17711;BME280;8975;57.718;12.134;2022-07-15T02:12:07;115940.22;;;-142.68;100.00
17711;BME280;8975;57.718;12.134;2022-07-15T02:14:33;115940.22;;;-142.68;100.00
17711;BME280;8975;57.718;12.134;2022-07-15T02:16:59;115940.22;;;-142.68;100.00
17711;BME280;8975;57.718;12.134;2022-07-15T02:19:24;115940.22;;;-142.68;100.00
17711;BME280;8975;57.718;12.134;2022-07-15T02:21:50;115940.22;;;-142.68;100.00
17711;BME280;8975;57.718;12.134;2022-07-15T02:24:15;115940.22;;;-142.68;100.00
17711;BME280;8975;57.718;12.134;2022-07-15T02:26:47;115940.22;;;-142.68;100.00
17711;BME280;8975;57.718;12.134;2022-07-15T02:29:14;115940.22;;;-142.68;100.00
17711;BME280;8975;57.718;12.134;2022-07-15T02:31:39;115940.22;;;-142.68;100.00
17711;BME280;8975;57.718;12.134;2022-07-15T02:34:04;115940.22;;;-142.68;99.44
17711;BME280;8975;57.718;12.134;2022-07-15T02:36:30;115940.22;;;-142.68;99.78
17711;BME280;8975;57.718;12.134;2022-07-15T02:38:56;115940.22;;;-142.68;99.59
17711;BME280;8975;57.718;12.134;2022-07-15T02:41:21;115940.22;;;-142.68;99.33
17711;BME280;8975;57.718;12.134;2022-07-15T02:43:46;115940.22;;;-142.68;99.31
17711;BME280;8975;57.718;12.134;2022-07-15T02:46:14;115940.22;;;-142.68;99.35
17711;BME280;8975;57.718;12.134;2022-07-15T02:48:39;115940.22;;;-142.68;99.67
17711;BME280;8975;57.718;12.134;2022-07-15T02:51:06;115940.22;;;-142.68;99.62
17711;BME280;8975;57.718;12.134;2022-07-15T02:53:32;115940.22;;;-142.68;99.53
17711;BME280;8975;57.718;12.134;2022-07-15T02:55:58;115940.22;;;-142.68;99.60
17711;BME280;8975;57.718;12.134;2022-07-15T02:58:24;115940.22;;;-142.68;99.12
17711;BME280;8975;57.718;12.134;2022-07-15T03:00:49;115940.22;;;-142.68;99.25
17711;BME280;8975;57.718;12.134;2022-07-15T03:03:15;115940.22;;;-142.68;99.05
17711;BME280;8975;57.718;12.134;2022-07-15T03:05:41;115940.22;;;-142.68;99.22
17711;BME280;8975;57.718;12.134;2022-07-15T03:08:07;115940.22;;;-142.68;99.10
17711;BME280;8975;57.718;12.134;2022-07-15T03:10:32;115940.22;;;-142.68;99.38
17711;BME280;8975;57.718;12.134;2022-07-15T03:12:57;115940.22;;;-142.68;99.92
17711;BME280;8975;57.718;12.134;2022-07-15T03:15:23;115940.22;;;-142.68;99.36
17711;BME280;8975;57.718;12.134;2022-07-15T03:17:48;115940.22;;;-142.68;99.45
17711;BME280;8975;57.718;12.134;2022-07-15T03:20:14;115940.22;;;-142.68;99.85
17711;BME280;8975;57.718;12.134;2022-07-15T03:22:39;115940.22;;;-142.68;99.92
17711;BME280;8975;57.718;12.134;2022-07-15T03:25:05;115940.22;;;-142.68;99.79
17711;BME280;8975;57.718;12.134;2022-07-15T03:27:30;115940.22;;;-142.68;100.00
17711;BME280;8975;57.718;12.134;2022-07-15T03:29:56;115940.22;;;-142.68;99.75
17711;BME280;8975;57.718;12.134;2022-07-15T03:32:21;115940.22;;;-142.68;99.98
17711;BME280;8975;57.718;12.134;2022-07-15T03:34:47;115940.22;;;-142.68;100.00
17711;BME280;8975;57.718;12.134;2022-07-15T03:37:14;115940.22;;;-142.68;100.00
17711;BME280;8975;57.718;12.134;2022-07-15T03:39:40;115940.22;;;-142.68;100.00
17711;BME280;8975;57.718;12.134;2022-07-15T03:42:05;115940.22;;;-142.68;100.00
17711;BME280;8975;57.718;12.134;2022-07-15T03:44:31;115940.22;;;-142.68;100.00
17711;BME280;8975;57.718;12.134;2022-07-15T03:46:56;115940.22;;;-142.68;99.28
17711;BME280;8975;57.718;12.134;2022-07-15T03:49:21;115940.22;;;-142.68;99.42
17711;BME280;8975;57.718;12.134;2022-07-15T03:51:47;115940.22;;;-142.68;99.16
17711;BME280;8975;57.718;12.134;2022-07-15T03:54:13;115940.22;;;-142.68;98.91
17711;BME280;8975;57.718;12.134;2022-07-15T03:56:38;115940.22;;;-142.68;97.64
17711;BME280;8975;57.718;12.134;2022-07-15T03:59:04;115940.22;;;-142.68;97.49
17711;BME280;8975;57.718;12.134;2022-07-15T04:01:30;115940.22;;;-142.68;97.48
17711;BME280;8975;57.718;12.134;2022-07-15T04:03:55;115940.22;;;-142.68;97.38
17711;BME280;8975;57.718;12.134;2022-07-15T04:06:21;115940.22;;;-142.68;95.53
17711;BME280;8975;57.718;12.134;2022-07-15T04:08:47;115940.22;;;-142.68;95.06
17711;BME280;8975;57.718;12.134;2022-07-15T04:11:14;115940.22;;;-142.68;95.46
17711;BME280;8975;57.718;12.134;2022-07-15T04:13:40;115940.22;;;-142.68;94.95
17711;BME280;8975;57.718;12.134;2022-07-15T04:16:06;115940.22;;;-142.68;95.77
17711;BME280;8975;57.718;12.134;2022-07-15T04:18:32;115940.22;;;-142.68;96.06
17711;BME280;8975;57.718;12.134;2022-07-15T04:20:58;115940.22;;;-142.68;95.81
17711;BME280;8975;57.718;12.134;2022-07-15T04:23:24;115940.22;;;-142.68;95.79
17711;BME280;8975;57.718;12.134;2022-07-15T04:25:50;115940.22;;;-142.68;94.82
17711;BME280;8975;57.718;12.134;2022-07-15T04:28:19;115940.22;;;-142.68;95.12
17711;BME280;8975;57.718;12.134;2022-07-15T04:30:45;115940.22;;;-142.68;94.35
17711;BME280;8975;57.718;12.134;2022-07-15T04:33:10;115940.22;;;-142.68;95.74
17711;BME280;8975;57.718;12.134;2022-07-15T04:35:35;115940.22;;;-142.68;96.07
17711;BME280;8975;57.718;12.134;2022-07-15T04:38:01;115940.22;;;-142.68;95.34
17711;BME280;8975;57.718;12.134;2022-07-15T04:40:26;115940.22;;;-142.68;94.79
17711;BME280;8975;57.718;12.134;2022-07-15T04:42:51;115940.22;;;-142.68;95.53
17711;BME280;8975;57.718;12.134;2022-07-15T04:45:17;115940.22;;;-142.68;95.48
17711;BME280;8975;57.718;12.134;2022-07-15T04:47:42;115940.22;;;-142.68;95.15
17711;BME280;8975;57.718;12.134;2022-07-15T04:50:08;115940.22;;;-142.68;95.27
17711;BME280;8975;57.718;12.134;2022-07-15T04:52:52;115940.22;;;-142.68;94.13
17711;BME280;8975;57.718;12.134;2022-07-15T04:55:17;115940.22;;;-142.68;94.49
17711;BME280;8975;57.718;12.134;2022-07-15T04:57:43;115940.22;;;-142.68;94.37
17711;BME280;8975;57.718;12.134;2022-07-15T05:00:09;115940.22;;;-142.68;94.79
17711;BME280;8975;57.718;12.134;2022-07-15T05:02:35;115940.22;;;-142.68;95.34
17711;BME280;8975;57.718;12.134;2022-07-15T05:05:01;115940.22;;;-142.68;95.30
17711;BME280;8975;57.718;12.134;2022-07-15T05:07:26;115940.22;;;-142.68;95.55
17711;BME280;8975;57.718;12.134;2022-07-15T05:09:51;115940.22;;;-142.68;95.55
17711;BME280;8975;57.718;12.134;2022-07-15T05:12:17;115940.22;;;-142.68;94.19
17711;BME280;8975;57.718;12.134;2022-07-15T05:14:43;115940.22;;;-142.68;93.10
17711;BME280;8975;57.718;12.134;2022-07-15T05:17:08;115940.22;;;-142.68;91.88
17711;BME280;8975;57.718;12.134;2022-07-15T05:19:34;115940.22;;;-142.68;91.77
17711;BME280;8975;57.718;12.134;2022-07-15T05:22:00;115940.22;;;-142.68;92.44
17711;BME280;8975;57.718;12.134;2022-07-15T05:24:25;115940.22;;;-142.68;92.54
17711;BME280;8975;57.718;12.134;2022-07-15T05:26:51;115940.22;;;-142.68;92.18
17711;BME280;8975;57.718;12.134;2022-07-15T05:29:16;115940.22;;;-142.68;90.97
17711;BME280;8975;57.718;12.134;2022-07-15T05:31:42;115940.22;;;-142.68;90.58
17711;BME280;8975;57.718;12.134;2022-07-15T05:34:08;115940.22;;;-142.68;90.32
17711;BME280;8975;57.718;12.134;2022-07-15T05:36:33;115940.22;;;-142.68;90.12
17711;BME280;8975;57.718;12.134;2022-07-15T05:38:58;115940.22;;;-142.68;90.11
17711;BME280;8975;57.718;12.134;2022-07-15T05:41:24;115940.22;;;-142.68;89.65
17711;BME280;8975;57.718;12.134;2022-07-15T05:43:49;115940.22;;;-142.68;88.67
17711;BME280;8975;57.718;12.134;2022-07-15T05:46:14;115940.22;;;-142.68;89.42
17711;BME280;8975;57.718;12.134;2022-07-15T05:48:40;115940.22;;;-142.68;88.98
17711;BME280;8975;57.718;12.134;2022-07-15T05:51:06;115940.22;;;-142.68;88.76
17711;BME280;8975;57.718;12.134;2022-07-15T05:53:32;115940.22;;;-142.68;86.64
17711;BME280;8975;57.718;12.134;2022-07-15T05:55:58;115940.22;;;-142.68;86.56
17711;BME280;8975;57.718;12.134;2022-07-15T05:58:23;115940.22;;;-142.68;88.28
17711;BME280;8975;57.718;12.134;2022-07-15T06:00:50;115940.22;;;-142.68;87.80
17711;BME280;8975;57.718;12.134;2022-07-15T06:03:16;115940.22;;;-142.68;88.81
17711;BME280;8975;57.718;12.134;2022-07-15T06:05:42;115940.22;;;-142.68;85.50
17711;BME280;8975;57.718;12.134;2022-07-15T06:08:08;115940.22;;;-142.68;83.37
17711;BME280;8975;57.718;12.134;2022-07-15T06:10:33;115940.22;;;-142.68;83.08
17711;BME280;8975;57.718;12.134;2022-07-15T06:12:59;115940.22;;;-142.68;82.55
17711;BME280;8975;57.718;12.134;2022-07-15T06:15:24;115940.22;;;-142.68;83.76
17711;BME280;8975;57.718;12.134;2022-07-15T06:17:50;115940.22;;;-142.68;81.95
17711;BME280;8975;57.718;12.134;2022-07-15T06:20:16;115940.22;;;-142.68;82.23
17711;BME280;8975;57.718;12.134;2022-07-15T06:22:41;115940.22;;;-142.68;81.65
17711;BME280;8975;57.718;12.134;2022-07-15T06:25:08;115940.22;;;-142.68;81.61
17711;BME280;8975;57.718;12.134;2022-07-15T06:27:34;115940.22;;;-142.68;79.94
17711;BME280;8975;57.718;12.134;2022-07-15T06:30:00;115940.22;;;-142.68;81.92
17711;BME280;8975;57.718;12.134;2022-07-15T06:32:25;115940.22;;;-142.68;81.54
17711;BME280;8975;57.718;12.134;2022-07-15T06:34:50;115940.22;;;-142.68;80.88
17711;BME280;8975;57.718;12.134;2022-07-15T06:37:16;115940.22;;;-142.68;82.83
17711;BME280;8975;57.718;12.134;2022-07-15T06:39:42;115940.22;;;-142.68;81.04
17711;BME280;8975;57.718;12.134;2022-07-15T06:42:07;115940.22;;;-142.68;81.02
17711;BME280;8975;57.718;12.134;2022-07-15T06:44:33;115940.22;;;-142.68;80.32
17711;BME280;8975;57.718;12.134;2022-07-15T06:46:58;115940.22;;;-142.68;80.67
17711;BME280;8975;57.718;12.134;2022-07-15T06:49:24;115940.22;;;-142.68;81.93
17711;BME280;8975;57.718;12.134;2022-07-15T06:51:50;115940.22;;;-142.68;81.23
17711;BME280;8975;57.718;12.134;2022-07-15T06:54:16;115940.22;;;-142.68;81.79
17711;BME280;8975;57.718;12.134;2022-07-15T06:56:43;115940.22;;;-142.68;82.02
17711;BME280;8975;57.718;12.134;2022-07-15T06:59:09;115940.22;;;-142.68;80.69
17711;BME280;8975;57.718;12.134;2022-07-15T07:01:34;115940.22;;;-142.68;81.91
17711;BME280;8975;57.718;12.134;2022-07-15T07:03:59;115940.22;;;-142.68;81.31
17711;BME280;8975;57.718;12.134;2022-07-15T07:06:25;115940.22;;;-142.68;79.42
17711;BME280;8975;57.718;12.134;2022-07-15T07:08:51;115940.22;;;-142.68;78.51
17711;BME280;8975;57.718;12.134;2022-07-15T07:11:17;115940.22;;;-142.68;76.41
17711;BME280;8975;57.718;12.134;2022-07-15T07:13:43;115940.22;;;-142.68;77.05
17711;BME280;8975;57.718;12.134;2022-07-15T07:16:08;115940.22;;;-142.68;74.29
17711;BME280;8975;57.718;12.134;2022-07-15T07:18:34;115940.22;;;-142.68;71.53
17711;BME280;8975;57.718;12.134;2022-07-15T07:20:59;115940.22;;;-142.68;69.24
17711;BME280;8975;57.718;12.134;2022-07-15T07:23:24;115940.22;;;-142.68;68.73
17711;BME280;8975;57.718;12.134;2022-07-15T07:25:52;115940.22;;;-142.68;67.24
17711;BME280;8975;57.718;12.134;2022-07-15T07:28:18;115940.22;;;-142.68;68.40
17711;BME280;8975;57.718;12.134;2022-07-15T07:30:43;115940.22;;;-142.68;68.38
17711;BME280;8975;57.718;12.134;2022-07-15T07:33:10;115940.22;;;-142.68;69.41
17711;BME280;8975;57.718;12.134;2022-07-15T07:35:35;115940.22;;;-142.68;70.53
17711;BME280;8975;57.718;12.134;2022-07-15T07:38:01;115940.22;;;-142.68;70.01
17711;BME280;8975;57.718;12.134;2022-07-15T07:40:26;115940.22;;;-142.68;70.83
17711;BME280;8975;57.718;12.134;2022-07-15T07:42:51;115940.22;;;-142.68;69.58
17711;BME280;8975;57.718;12.134;2022-07-15T07:45:17;115940.22;;;-142.68;72.82
17711;BME280;8975;57.718;12.134;2022-07-15T07:47:42;115940.22;;;-142.68;70.88
17711;BME280;8975;57.718;12.134;2022-07-15T07:50:09;115940.22;;;-142.68;70.25
17711;BME280;8975;57.718;12.134;2022-07-15T07:52:34;115940.22;;;-142.68;71.52
17711;BME280;8975;57.718;12.134;2022-07-15T07:55:00;115940.22;;;-142.68;70.06
17711;BME280;8975;57.718;12.134;2022-07-15T07:57:25;115940.22;;;-142.68;72.77
17711;BME280;8975;57.718;12.134;2022-07-15T07:59:51;115940.22;;;-142.68;72.71
17711;BME280;8975;57.718;12.134;2022-07-15T08:02:16;115940.22;;;-142.68;69.98
17711;BME280;8975;57.718;12.134;2022-07-15T08:04:41;115940.22;;;-142.68;70.61
17711;BME280;8975;57.718;12.134;2022-07-15T08:07:07;115940.22;;;-142.68;72.69
17711;BME280;8975;57.718;12.134;2022-07-15T08:09:33;115940.22;;;-142.68;74.58
17711;BME280;8975;57.718;12.134;2022-07-15T08:11:59;115940.22;;;-142.68;69.62
17711;BME280;8975;57.718;12.134;2022-07-15T08:14:24;115940.22;;;-142.68;72.05
17711;BME280;8975;57.718;12.134;2022-07-15T08:16:51;115940.22;;;-142.68;74.39
17711;BME280;8975;57.718;12.134;2022-07-15T08:19:17;115940.22;;;-142.68;67.66
17711;BME280;8975;57.718;12.134;2022-07-15T08:21:44;115940.22;;;-142.68;69.42
17711;BME280;8975;57.718;12.134;2022-07-15T08:24:10;115940.22;;;-142.68;69.39
17711;BME280;8975;57.718;12.134;2022-07-15T08:26:37;115940.22;;;-142.68;69.60
17711;BME280;8975;57.718;12.134;2022-07-15T08:29:02;115940.22;;;-142.68;66.94
17711;BME280;8975;57.718;12.134;2022-07-15T08:31:28;115940.22;;;-142.68;67.87
17711;BME280;8975;57.718;12.134;2022-07-15T08:33:53;115940.22;;;-142.68;68.60
17711;BME280;8975;57.718;12.134;2022-07-15T08:36:19;115940.22;;;-142.68;69.12
17711;BME280;8975;57.718;12.134;2022-07-15T08:38:45;115940.22;;;-142.68;67.23
17711;BME280;8975;57.718;12.134;2022-07-15T08:41:13;115940.22;;;-142.68;70.90
17711;BME280;8975;57.718;12.134;2022-07-15T08:43:39;115940.22;;;-142.68;71.17
17711;BME280;8975;57.718;12.134;2022-07-15T08:46:06;115940.22;;;-142.68;71.71
17711;BME280;8975;57.718;12.134;2022-07-15T08:48:32;115940.22;;;-142.68;68.66
17711;BME280;8975;57.718;12.134;2022-07-15T08:51:02;115940.22;;;-142.68;69.45
17711;BME280;8975;57.718;12.134;2022-07-15T08:53:28;115940.22;;;-142.68;73.43
17711;BME280;8975;57.718;12.134;2022-07-15T08:55:56;115940.22;;;-142.68;67.63
17711;BME280;8975;57.718;12.134;2022-07-15T08:58:21;115940.22;;;-142.68;67.34
17711;BME280;8975;57.718;12.134;2022-07-15T09:00:47;115940.22;;;-142.68;71.44
17711;BME280;8975;57.718;12.134;2022-07-15T09:03:13;115940.22;;;-142.68;68.58
17711;BME280;8975;57.718;12.134;2022-07-15T09:05:38;115940.22;;;-142.68;68.70
17711;BME280;8975;57.718;12.134;2022-07-15T09:13:09;115940.22;;;-142.68;67.07
17711;BME280;8975;57.718;12.134;2022-07-15T09:15:38;115940.22;;;-142.68;67.97
17711;BME280;8975;57.718;12.134;2022-07-15T09:18:14;115940.22;;;-142.68;69.38
17711;BME280;8975;57.718;12.134;2022-07-15T09:20:42;115940.22;;;-142.68;68.28
17711;BME280;8975;57.718;12.134;2022-07-15T09:23:09;115940.22;;;-142.68;68.93
17711;BME280;8975;57.718;12.134;2022-07-15T09:25:37;115940.22;;;-142.68;66.03
17711;BME280;8975;57.718;12.134;2022-07-15T09:28:05;115940.22;;;-142.68;65.30
17711;BME280;8975;57.718;12.134;2022-07-15T09:30:33;115940.22;;;-142.68;66.12
17711;BME280;8975;57.718;12.134;2022-07-15T09:33:21;115940.22;;;-142.68;65.99
17711;BME280;8975;57.718;12.134;2022-07-15T09:36:13;115940.22;;;-142.68;65.85
17711;BME280;8975;57.718;12.134;2022-07-15T09:39:01;115940.22;;;-142.68;64.01
17711;BME280;8975;57.718;12.134;2022-07-15T09:41:31;115940.22;;;-142.68;62.44
17711;BME280;8975;57.718;12.134;2022-07-15T09:44:03;115940.22;;;-142.68;65.05
17711;BME280;8975;57.718;12.134;2022-07-15T09:46:50;115940.22;;;-142.68;65.28
17711;BME280;8975;57.718;12.134;2022-07-15T09:51:57;115940.22;;;-142.68;64.30
17711;BME280;8975;57.718;12.134;2022-07-15T09:54:25;115940.22;;;-142.68;62.73
17711;BME280;8975;57.718;12.134;2022-07-15T09:56:51;115940.22;;;-142.68;64.12
17711;BME280;8975;57.718;12.134;2022-07-15T09:59:19;115940.22;;;-142.68;62.95
17711;BME280;8975;57.718;12.134;2022-07-15T10:01:45;115940.22;;;-142.68;65.19
17711;BME280;8975;57.718;12.134;2022-07-15T10:04:14;115940.22;;;-142.68;65.65
17711;BME280;8975;57.718;12.134;2022-07-15T10:06:42;115940.22;;;-142.68;64.84
17711;BME280;8975;57.718;12.134;2022-07-15T10:09:08;115940.22;;;-142.68;63.92
17711;BME280;8975;57.718;12.134;2022-07-15T10:11:47;115940.22;;;-142.68;62.68
17711;BME280;8975;57.718;12.134;2022-07-15T10:20:20;115940.22;;;-142.68;64.58
17711;BME280;8975;57.718;12.134;2022-07-15T10:23:29;115940.22;;;-142.68;63.24
17711;BME280;8975;57.718;12.134;2022-07-15T10:26:23;115940.22;;;-142.68;65.26
17711;BME280;8975;57.718;12.134;2022-07-15T10:28:58;115940.22;;;-142.68;62.03
17711;BME280;8975;57.718;12.134;2022-07-15T10:31:29;115940.22;;;-142.68;63.54
17711;BME280;8975;57.718;12.134;2022-07-15T10:39:14;115940.22;;;-142.68;65.35
17711;BME280;8975;57.718;12.134;2022-07-15T10:44:16;115940.22;;;-142.68;64.26
17711;BME280;8975;57.718;12.134;2022-07-15T10:46:42;115940.22;;;-142.68;64.53
17711;BME280;8975;57.718;12.134;2022-07-15T10:54:02;115940.22;;;-142.68;65.83
17711;BME280;8975;57.718;12.134;2022-07-15T10:56:35;115940.22;;;-142.68;64.45
17711;BME280;8975;57.718;12.134;2022-07-15T10:59:11;115940.22;;;-142.68;64.33
17711;BME280;8975;57.718;12.134;2022-07-15T11:01:45;115940.22;;;-142.68;63.81
17711;BME280;8975;57.718;12.134;2022-07-15T11:04:21;115940.22;;;-142.68;64.46
17711;BME280;8975;57.718;12.134;2022-07-15T11:19:57;115940.22;;;-142.68;67.55
17711;BME280;8975;57.718;12.134;2022-07-15T11:22:26;115940.22;;;-142.68;67.39
17711;BME280;8975;57.718;12.134;2022-07-15T11:24:52;115940.22;;;-142.68;66.47
17711;BME280;8975;57.718;12.134;2022-07-15T11:27:23;115940.22;;;-142.68;67.65
17711;BME280;8975;57.718;12.134;2022-07-15T11:32:19;115940.22;;;-142.68;66.85
17711;BME280;8975;57.718;12.134;2022-07-15T11:34:54;115940.22;;;-142.68;67.87
17711;BME280;8975;57.718;12.134;2022-07-15T11:37:38;115940.22;;;-142.68;66.22
17711;BME280;8975;57.718;12.134;2022-07-15T11:42:34;115940.22;;;-142.68;65.63
17711;BME280;8975;57.718;12.134;2022-07-15T11:45:36;115940.22;;;-142.68;68.02
17711;BME280;8975;57.718;12.134;2022-07-15T11:48:06;115940.22;;;-142.68;66.44
17711;BME280;8975;57.718;12.134;2022-07-15T11:50:33;115940.22;;;-142.68;68.32
17711;BME280;8975;57.718;12.134;2022-07-15T11:52:59;115940.22;;;-142.68;69.08
17711;BME280;8975;57.718;12.134;2022-07-15T11:55:24;115940.22;;;-142.68;68.25
17711;BME280;8975;57.718;12.134;2022-07-15T11:57:50;115940.22;;;-142.68;68.99
17711;BME280;8975;57.718;12.134;2022-07-15T12:00:17;115940.22;;;-142.68;67.93
17711;BME280;8975;57.718;12.134;2022-07-15T12:02:44;115940.22;;;-142.68;69.95
17711;BME280;8975;57.718;12.134;2022-07-15T12:05:10;115940.22;;;-142.68;70.54
17711;BME280;8975;57.718;12.134;2022-07-15T12:07:44;115940.22;;;-142.68;67.41
17711;BME280;8975;57.718;12.134;2022-07-15T12:10:11;115940.22;;;-142.68;68.80
17711;BME280;8975;57.718;12.134;2022-07-15T12:12:53;115940.22;;;-142.68;69.26
17711;BME280;8975;57.718;12.134;2022-07-15T12:15:20;115940.22;;;-142.68;69.10
17711;BME280;8975;57.718;12.134;2022-07-15T12:17:46;115940.22;;;-142.68;69.20
17711;BME280;8975;57.718;12.134;2022-07-15T12:20:11;115940.22;;;-142.68;68.96
17711;BME280;8975;57.718;12.134;2022-07-15T12:22:37;115940.22;;;-142.68;69.65
17711;BME280;8975;57.718;12.134;2022-07-15T12:25:03;115940.22;;;-142.68;70.40
17711;BME280;8975;57.718;12.134;2022-07-15T12:27:35;115940.22;;;-142.68;69.65
17711;BME280;8975;57.718;12.134;2022-07-15T12:30:07;115940.22;;;-142.68;69.63
17711;BME280;8975;57.718;12.134;2022-07-15T12:32:33;115940.22;;;-142.68;70.30
17711;BME280;8975;57.718;12.134;2022-07-15T12:35:03;115940.22;;;-142.68;69.32
17711;BME280;8975;57.718;12.134;2022-07-15T12:47:33;115940.22;;;-142.68;70.62
17711;BME280;8975;57.718;12.134;2022-07-15T12:49:59;115940.22;;;-142.68;70.45
17711;BME280;8975;57.718;12.134;2022-07-15T12:52:29;115940.22;;;-142.68;71.28
17711;BME280;8975;57.718;12.134;2022-07-15T12:54:55;115940.22;;;-142.68;70.83
17711;BME280;8975;57.718;12.134;2022-07-15T12:57:25;115940.22;;;-142.68;70.51
17711;BME280;8975;57.718;12.134;2022-07-15T13:00:05;115940.22;;;-142.68;68.45
17711;BME280;8975;57.718;12.134;2022-07-15T13:02:32;115940.22;;;-142.68;69.23
17711;BME280;8975;57.718;12.134;2022-07-15T13:04:58;115940.22;;;-142.68;69.60
17711;BME280;8975;57.718;12.134;2022-07-15T13:07:23;115940.22;;;-142.68;70.86
17711;BME280;8975;57.718;12.134;2022-07-15T13:09:50;115940.22;;;-142.68;70.55
17711;BME280;8975;57.718;12.134;2022-07-15T13:12:16;115940.22;;;-142.68;72.77
17711;BME280;8975;57.718;12.134;2022-07-15T13:14:42;115940.22;;;-142.68;72.92
17711;BME280;8975;57.718;12.134;2022-07-15T13:17:08;115940.22;;;-142.68;73.64
17711;BME280;8975;57.718;12.134;2022-07-15T13:19:33;115940.22;;;-142.68;72.79
17711;BME280;8975;57.718;12.134;2022-07-15T13:22:00;115940.22;;;-142.68;73.94